Time;durP1;ratioP1;P1;durP2;ratioP2;P2;SDS_P1;SDS_P2;PMS_P1;PMS_P2;Temp;Humidity;BMP_temperature;BMP_pressure;BME280_temperature;BME280_humidity;BME280_pressure;Samples;Min_cycle;Max_cycle;Signal;HPM_P1;HPM_P2
2022/01/27 00:01:47;;;;;;;;;;;-1.30;99.90;;;;;;5100464;28;19928;-71
2022/01/27 00:04:18;;;;;;;;;;;-1.30;99.90;;;;;;5100014;28;19920;-69
2022/01/27 00:06:44;;;;;;;;;;;-1.30;99.90;;;;;;5100556;28;19920;-72
2022/01/27 00:09:17;;;;;;;;;;;-1.40;99.90;;;;;;5087141;28;19921;-70
2022/01/27 00:11:46;;;;;;;;;;;-1.40;99.90;;;;;;5080406;28;20123;-70
2022/01/27 00:14:16;;;;;;;;;;;-1.40;99.90;;;;;;5079735;28;19967;-72
2022/01/27 00:16:52;;;;;;;;;;;-1.30;99.90;;;;;;5080258;28;19921;-70
2022/01/27 00:19:19;;;;;;;;;;;-1.30;99.90;;;;;;5080786;28;19958;-70
2022/01/27 00:21:46;;;;;;;;;;;-1.40;99.90;;;;;;5079922;28;19920;-70
2022/01/27 00:24:12;;;;;;;;;;;-1.50;99.90;;;;;;5079092;28;20132;-69
2022/01/27 00:26:40;;;;;;;;;;;-1.50;99.90;;;;;;5080062;28;19924;-70
2022/01/27 00:29:06;;;;;;;;;;;-1.50;99.90;;;;;;5080188;28;19921;-70
2022/01/27 00:31:34;;;;;;;;;;;-1.50;99.90;;;;;;5079777;28;20227;-70
2022/01/27 00:34:04;;;;;;;;;;;-1.40;99.90;;;;;;5079361;28;19921;-70
2022/01/27 00:36:30;;;;;;;;;;;-1.40;99.90;;;;;;5080042;28;19920;-70
2022/01/27 00:38:57;;;;;;;;;;;-1.40;99.90;;;;;;5079648;28;20093;-70
2022/01/27 00:41:23;;;;;;;;;;;-1.40;99.90;;;;;;5095633;28;19920;-70
2022/01/27 00:43:50;;;;;;;;;;;-1.40;99.90;;;;;;5099528;28;19935;-70
2022/01/27 00:46:18;;;;;;;;;;;-1.40;99.90;;;;;;5104607;28;19926;-70
2022/01/27 00:48:46;;;;;;;;;;;-1.40;99.90;;;;;;5110787;28;19927;-70
2022/01/27 00:51:16;;;;;;;;;;;-1.50;99.90;;;;;;5097675;28;19928;-69
2022/01/27 00:53:48;;;;;;;;;;;-1.50;99.90;;;;;;5085617;28;19962;-70
2022/01/27 00:56:23;;;;;;;;;;;-1.50;99.90;;;;;;5086388;28;20203;-69
2022/01/27 00:59:16;;;;;;;;;;;-1.60;99.90;;;;;;5085933;28;20204;-70
2022/01/27 01:01:48;;;;;;;;;;;-1.60;99.90;;;;;;5085756;28;19982;-70
2022/01/27 01:04:23;;;;;;;;;;;-1.50;99.90;;;;;;5085601;28;19920;-70
2022/01/27 01:06:51;;;;;;;;;;;-1.50;99.90;;;;;;5094791;28;19920;-70
2022/01/27 01:12:56;;;;;;;;;;;-1.50;99.90;;;;;;5105664;28;19916;-70
2022/01/27 01:15:14;;;;;;;;;;;-1.60;99.90;;;;;;5105231;28;19920;-69
2022/01/27 01:17:56;;;;;;;;;;;-1.60;99.90;;;;;;5089753;28;19988;-70
2022/01/27 01:20:33;;;;;;;;;;;-1.60;99.90;;;;;;5085697;28;19927;-70
2022/01/27 01:31:16;;;;;;;;;;;-1.70;99.90;;;;;;5104895;28;19973;-70
2022/01/27 01:33:45;;;;;;;;;;;-1.70;99.90;;;;;;5105260;28;19927;-70
2022/01/27 01:36:15;;;;;;;;;;;-1.70;99.90;;;;;;5102189;28;20201;-71
2022/01/27 01:38:43;;;;;;;;;;;-1.70;99.90;;;;;;5085277;28;19927;-70
2022/01/27 01:41:09;;;;;;;;;;;-1.70;99.90;;;;;;5084934;28;20119;-70
2022/01/27 01:43:36;;;;;;;;;;;-1.70;99.90;;;;;;5084833;28;19926;-69
2022/01/27 01:46:03;;;;;;;;;;;-1.80;99.90;;;;;;5086700;28;19920;-70
2022/01/27 01:48:29;;;;;;;;;;;-1.80;99.90;;;;;;5102361;28;19927;-70
2022/01/27 01:50:57;;;;;;;;;;;-1.80;99.90;;;;;;5105143;28;19924;-70
2022/01/27 01:53:26;;;;;;;;;;;-1.80;99.90;;;;;;5105246;28;19920;-70
2022/01/27 01:55:52;;;;;;;;;;;-1.80;99.90;;;;;;5104107;28;20204;-70
2022/01/27 01:58:19;;;;;;;;;;;-1.80;99.90;;;;;;5105166;28;19920;-70
2022/01/27 02:00:45;;;;;;;;;;;-1.80;99.90;;;;;;5104962;28;19920;-70
2022/01/27 02:03:12;;;;;;;;;;;-1.80;99.90;;;;;;5104337;28;19920;-70
2022/01/27 02:05:45;;;;;;;;;;;-1.80;99.90;;;;;;5104192;28;19920;-70
2022/01/27 02:08:30;;;;;;;;;;;-1.80;99.90;;;;;;5085698;28;20120;-70
2022/01/27 02:19:13;;;;;;;;;;;-1.90;99.90;;;;;;5084819;28;19984;-70
2022/01/27 02:21:45;;;;;;;;;;;-1.90;99.90;;;;;;5084666;28;19926;-70
2022/01/27 02:24:12;;;;;;;;;;;-1.90;99.90;;;;;;5084205;28;19927;-70
2022/01/27 02:26:40;;;;;;;;;;;-1.90;99.90;;;;;;5089920;28;19935;-71
2022/01/27 02:29:07;;;;;;;;;;;-1.90;99.90;;;;;;5104465;28;19927;-70
2022/01/27 02:31:33;;;;;;;;;;;-2.00;99.90;;;;;;5104783;28;20169;-70
2022/01/27 02:34:00;;;;;;;;;;;-2.00;99.90;;;;;;5103729;28;20215;-70
2022/01/27 02:36:27;;;;;;;;;;;-2.00;99.90;;;;;;5104133;28;20146;-70
2022/01/27 02:38:55;;;;;;;;;;;-2.00;99.90;;;;;;5104105;28;20130;-71
2022/01/27 02:41:22;;;;;;;;;;;-2.00;99.90;;;;;;5104133;28;19927;-70
2022/01/27 02:43:48;;;;;;;;;;;-2.00;99.90;;;;;;5103631;28;19935;-70
2022/01/27 02:46:17;;;;;;;;;;;-2.00;99.90;;;;;;5103876;28;19926;-70
2022/01/27 02:48:43;;;;;;;;;;;-2.00;99.90;;;;;;5104213;28;19920;-70
2022/01/27 02:51:10;;;;;;;;;;;-2.00;99.90;;;;;;5104079;28;19926;-70
2022/01/27 02:53:36;;;;;;;;;;;-2.00;99.90;;;;;;5103962;28;19924;-70
2022/01/27 02:56:05;;;;;;;;;;;-2.10;99.90;;;;;;5104125;28;19920;-70
2022/01/27 02:58:31;;;;;;;;;;;-2.10;99.90;;;;;;5103849;28;19920;-70
2022/01/27 03:00:58;;;;;;;;;;;-2.10;99.90;;;;;;5103767;28;20203;-70
2022/01/27 03:03:24;;;;;;;;;;;-2.10;99.90;;;;;;5104007;28;19926;-70
2022/01/27 03:05:51;;;;;;;;;;;-2.10;99.90;;;;;;5103231;28;19942;-70
2022/01/27 03:08:17;;;;;;;;;;;-2.00;99.90;;;;;;5103691;28;19920;-70
2022/01/27 03:10:46;;;;;;;;;;;-2.10;99.90;;;;;;5103717;28;19920;-70
2022/01/27 03:13:14;;;;;;;;;;;-2.10;99.90;;;;;;5103900;28;19924;-70
2022/01/27 03:15:40;;;;;;;;;;;-2.20;99.90;;;;;;5102934;28;19924;-70
2022/01/27 03:18:07;;;;;;;;;;;-2.20;99.90;;;;;;5089613;28;19919;-70
2022/01/27 03:20:34;;;;;;;;;;;-2.20;99.90;;;;;;5083178;28;20135;-70
2022/01/27 03:23:01;;;;;;;;;;;-2.30;99.90;;;;;;5083487;28;19983;-70
2022/01/27 03:25:27;;;;;;;;;;;-2.30;99.90;;;;;;5082548;28;19924;-69
2022/01/27 03:27:54;;;;;;;;;;;-2.20;99.90;;;;;;5088297;28;19980;-70
2022/01/27 03:30:22;;;;;;;;;;;-2.20;99.90;;;;;;5083592;28;19921;-69
2022/01/27 03:32:49;;;;;;;;;;;-2.20;99.90;;;;;;5083809;28;19920;-68
2022/01/27 03:35:15;;;;;;;;;;;-2.20;99.90;;;;;;5082781;28;20136;-70
2022/01/27 03:37:42;;;;;;;;;;;-2.30;99.90;;;;;;5083318;28;19984;-69
2022/01/27 03:40:09;;;;;;;;;;;-2.20;99.90;;;;;;5083090;28;19927;-69
2022/01/27 03:42:43;;;;;;;;;;;-2.20;99.90;;;;;;5083502;28;19920;-69
2022/01/27 03:45:10;;;;;;;;;;;-2.20;99.90;;;;;;5082982;28;20030;-70
2022/01/27 03:47:38;;;;;;;;;;;-2.20;99.90;;;;;;5083280;28;19920;-68
2022/01/27 03:50:04;;;;;;;;;;;-2.20;99.90;;;;;;5083135;28;19921;-68
2022/01/27 03:52:31;;;;;;;;;;;-2.20;99.90;;;;;;5083109;28;19925;-69
2022/01/27 03:54:58;;;;;;;;;;;-2.10;99.90;;;;;;5082936;28;19926;-69
2022/01/27 03:57:24;;;;;;;;;;;-2.10;99.90;;;;;;5083265;28;20138;-69
2022/01/27 03:59:51;;;;;;;;;;;-2.10;99.90;;;;;;5083119;28;19921;-69
2022/01/27 04:02:17;;;;;;;;;;;-2.10;99.90;;;;;;5083069;28;19927;-68
2022/01/27 04:04:45;;;;;;;;;;;-2.10;99.90;;;;;;5086268;28;19927;-69
2022/01/27 04:07:12;;;;;;;;;;;-2.00;99.90;;;;;;5082650;28;19928;-69
2022/01/27 04:09:38;;;;;;;;;;;-2.00;99.90;;;;;;5082717;28;20224;-69
2022/01/27 04:12:05;;;;;;;;;;;-1.90;99.90;;;;;;5083028;28;19943;-69
2022/01/27 04:14:32;;;;;;;;;;;-1.90;99.90;;;;;;5083092;28;19924;-69
2022/01/27 04:16:58;;;;;;;;;;;-2.00;99.90;;;;;;5083382;28;19928;-69
2022/01/27 04:19:25;;;;;;;;;;;-2.00;99.90;;;;;;5083259;28;20107;-69
2022/01/27 04:21:53;;;;;;;;;;;-2.10;99.90;;;;;;5082767;28;19920;-69
2022/01/27 04:24:19;;;;;;;;;;;-2.10;99.90;;;;;;5084973;28;19950;-69
2022/01/27 04:26:51;;;;;;;;;;;-2.10;99.90;;;;;;5085692;28;19959;-69
2022/01/27 04:29:20;;;;;;;;;;;-2.10;99.90;;;;;;5086709;28;19921;-69
2022/01/27 04:31:49;;;;;;;;;;;-2.10;99.90;;;;;;5086600;28;19924;-69
2022/01/27 04:34:15;;;;;;;;;;;-2.10;99.90;;;;;;5085624;28;19920;-69
2022/01/27 04:36:44;;;;;;;;;;;-2.20;99.90;;;;;;5086465;28;20283;-69
2022/01/27 04:39:18;;;;;;;;;;;-2.20;99.90;;;;;;5086687;28;19920;-69
2022/01/27 04:41:50;;;;;;;;;;;-2.20;99.90;;;;;;5086383;28;19925;-69
2022/01/27 04:44:23;;;;;;;;;;;-2.20;99.90;;;;;;5085845;28;19921;-69
2022/01/27 04:46:56;;;;;;;;;;;-2.20;99.90;;;;;;5086336;28;20131;-69
2022/01/27 04:49:23;;;;;;;;;;;-2.30;99.90;;;;;;5086384;28;19922;-68
2022/01/27 04:51:49;;;;;;;;;;;-2.30;99.90;;;;;;5086333;28;19921;-69
2022/01/27 04:54:22;;;;;;;;;;;-2.30;99.90;;;;;;5086243;28;19992;-69
2022/01/27 04:56:49;;;;;;;;;;;-2.30;99.90;;;;;;5086236;28;19931;-68
2022/01/27 04:59:20;;;;;;;;;;;-2.30;99.90;;;;;;5085981;28;19921;-68
2022/01/27 05:01:50;;;;;;;;;;;-2.30;99.90;;;;;;5100444;28;19966;-69
2022/01/27 05:04:19;;;;;;;;;;;-2.30;99.90;;;;;;5105125;28;19957;-69
2022/01/27 05:06:48;;;;;;;;;;;-2.40;99.90;;;;;;5105217;28;19920;-69
2022/01/27 05:09:15;;;;;;;;;;;-2.40;99.90;;;;;;5106220;28;19920;-68
2022/01/27 05:11:49;;;;;;;;;;;-2.40;99.90;;;;;;5094587;28;19988;-69
2022/01/27 05:14:18;;;;;;;;;;;-2.40;99.90;;;;;;5085487;28;19920;-69
2022/01/27 05:16:45;;;;;;;;;;;-2.40;99.90;;;;;;5085739;28;19920;-69
2022/01/27 05:19:11;;;;;;;;;;;-2.40;99.90;;;;;;5086553;28;19928;-68
2022/01/27 05:21:38;;;;;;;;;;;-2.30;99.90;;;;;;5100419;28;19920;-70
2022/01/27 05:24:05;;;;;;;;;;;-2.40;99.90;;;;;;5107912;28;19932;-69
2022/01/27 05:26:33;;;;;;;;;;;-2.40;99.90;;;;;;5105976;28;19932;-68
2022/01/27 05:29:01;;;;;;;;;;;-2.40;99.90;;;;;;5104776;28;19920;-68
2022/01/27 05:31:27;;;;;;;;;;;-2.40;99.90;;;;;;5098499;28;20212;-69
2022/01/27 05:33:54;;;;;;;;;;;-2.30;99.90;;;;;;5083268;28;19920;-69
2022/01/27 05:36:21;;;;;;;;;;;-2.30;99.90;;;;;;5085087;28;20204;-68
2022/01/27 05:38:47;;;;;;;;;;;-2.20;99.90;;;;;;5084981;28;19967;-69
2022/01/27 05:41:14;;;;;;;;;;;-2.20;99.90;;;;;;5100942;28;19927;-70
2022/01/27 05:43:41;;;;;;;;;;;-2.30;99.90;;;;;;5104899;28;19973;-69
2022/01/27 05:46:09;;;;;;;;;;;-2.20;99.90;;;;;;5105332;28;19920;-69
2022/01/27 05:48:35;;;;;;;;;;;-2.20;99.90;;;;;;5105176;28;20111;-70
2022/01/27 05:51:02;;;;;;;;;;;-2.10;99.90;;;;;;5113671;28;19926;-69
2022/01/27 05:53:30;;;;;;;;;;;-2.10;99.90;;;;;;5124804;28;19920;-69
2022/01/27 05:55:56;;;;;;;;;;;-2.10;99.90;;;;;;5121862;28;20234;-70
2022/01/27 05:58:25;;;;;;;;;;;-2.10;99.90;;;;;;5104468;28;19920;-69
2022/01/27 06:00:51;;;;;;;;;;;-2.10;99.90;;;;;;5098164;28;19987;-69
2022/01/27 06:03:19;;;;;;;;;;;-2.10;99.90;;;;;;5099476;28;19991;-68
2022/01/27 06:05:46;;;;;;;;;;;-2.10;99.90;;;;;;5104348;28;20204;-69
2022/01/27 06:08:12;;;;;;;;;;;-2.10;99.90;;;;;;5101474;28;19920;-68
2022/01/27 06:10:39;;;;;;;;;;;-2.10;99.90;;;;;;5087893;28;19927;-68
2022/01/27 06:13:06;;;;;;;;;;;-2.10;99.90;;;;;;5105315;28;19927;-69
2022/01/27 06:15:32;;;;;;;;;;;-2.10;99.90;;;;;;5104595;28;19927;-67
2022/01/27 06:17:59;;;;;;;;;;;-2.10;99.90;;;;;;5104671;28;19949;-72
2022/01/27 06:20:28;;;;;;;;;;;-2.10;99.90;;;;;;5103766;28;19951;-67
2022/01/27 06:22:57;;;;;;;;;;;-2.10;99.90;;;;;;5101178;28;19928;-68
2022/01/27 06:25:23;;;;;;;;;;;-2.10;99.90;;;;;;5096867;28;19958;-67
2022/01/27 06:27:50;;;;;;;;;;;-2.10;99.90;;;;;;5105064;28;19979;-68
2022/01/27 06:30:16;;;;;;;;;;;-2.20;99.90;;;;;;5104778;28;19926;-68
2022/01/27 06:32:43;;;;;;;;;;;-2.10;99.90;;;;;;5103615;28;19920;-68
2022/01/27 06:35:10;;;;;;;;;;;-2.10;99.90;;;;;;5083915;28;19927;-68
2022/01/27 06:37:39;;;;;;;;;;;-2.00;99.90;;;;;;5084426;28;19920;-68
2022/01/27 06:40:06;;;;;;;;;;;-2.00;99.90;;;;;;5084216;28;20200;-69
2022/01/27 06:42:33;;;;;;;;;;;-2.00;99.90;;;;;;5084740;28;19921;-70
2022/01/27 06:45:00;;;;;;;;;;;-2.00;99.90;;;;;;5084100;28;19920;-69
2022/01/27 06:47:26;;;;;;;;;;;-1.90;99.90;;;;;;5083903;28;19963;-70
2022/01/27 06:49:53;;;;;;;;;;;-1.90;99.90;;;;;;5083237;28;19928;-70
2022/01/27 06:52:21;;;;;;;;;;;-1.90;99.90;;;;;;5081780;28;19924;-69
2022/01/27 06:54:50;;;;;;;;;;;-2.00;99.90;;;;;;5100830;28;19926;-69
2022/01/27 06:57:16;;;;;;;;;;;-2.00;99.90;;;;;;5093949;28;20112;-69
2022/01/27 06:59:43;;;;;;;;;;;-2.10;99.90;;;;;;5083646;28;19921;-70
2022/01/27 07:02:10;;;;;;;;;;;-2.10;99.90;;;;;;5093045;28;19966;-69
2022/01/27 07:04:36;;;;;;;;;;;-2.10;99.90;;;;;;5103692;28;19983;-71
2022/01/27 07:07:03;;;;;;;;;;;-2.10;99.90;;;;;;5103471;28;19920;-69
2022/01/27 07:09:30;;;;;;;;;;;-2.10;99.90;;;;;;5103886;28;19924;-69
2022/01/27 07:11:58;;;;;;;;;;;-2.00;99.90;;;;;;5103964;28;19926;-69
2022/01/27 07:14:24;;;;;;;;;;;-2.00;99.90;;;;;;5103065;28;20158;-69
2022/01/27 07:16:51;;;;;;;;;;;-1.90;99.90;;;;;;5102265;28;19932;-70
2022/01/27 07:19:18;;;;;;;;;;;-1.90;99.90;;;;;;5104061;28;19920;-70
2022/01/27 07:21:44;;;;;;;;;;;-1.90;99.90;;;;;;5103836;28;19927;-70
2022/01/27 07:24:11;;;;;;;;;;;-1.90;99.90;;;;;;5105222;28;19936;-70
2022/01/27 07:26:37;;;;;;;;;;;-1.80;99.90;;;;;;5114731;28;19927;-70
2022/01/27 07:29:05;;;;;;;;;;;-1.80;99.90;;;;;;5113937;28;20166;-70
2022/01/27 07:31:32;;;;;;;;;;;-1.80;99.90;;;;;;5103657;28;19928;-70
2022/01/27 07:33:58;;;;;;;;;;;-1.90;99.90;;;;;;5103397;28;20299;-69
2022/01/27 07:36:25;;;;;;;;;;;-1.90;99.90;;;;;;5103012;28;20235;-69
2022/01/27 07:38:52;;;;;;;;;;;-2.00;99.90;;;;;;5104094;28;20123;-71
2022/01/27 07:41:18;;;;;;;;;;;-1.90;99.90;;;;;;5103825;28;19920;-70
2022/01/27 07:43:45;;;;;;;;;;;-1.90;99.90;;;;;;5103257;28;19927;-70
2022/01/27 07:46:13;;;;;;;;;;;-1.90;99.90;;;;;;5104130;28;19920;-70
2022/01/27 07:48:40;;;;;;;;;;;-1.90;99.90;;;;;;5104184;28;19920;-70
2022/01/27 07:51:07;;;;;;;;;;;-2.00;99.90;;;;;;5102206;28;20234;-70
2022/01/27 07:53:34;;;;;;;;;;;-2.10;99.90;;;;;;5092127;28;19920;-71
2022/01/27 07:56:02;;;;;;;;;;;-2.10;99.90;;;;;;5093038;28;19920;-69
2022/01/27 07:58:29;;;;;;;;;;;-2.10;99.90;;;;;;5084783;28;19943;-69
2022/01/27 08:00:55;;;;;;;;;;;-2.20;99.90;;;;;;5083049;28;19920;-70
2022/01/27 08:03:23;;;;;;;;;;;-2.30;99.90;;;;;;5086401;28;19927;-70
2022/01/27 08:05:50;;;;;;;;;;;-2.30;99.90;;;;;;5086380;28;19924;-70
2022/01/27 08:08:16;;;;;;;;;;;-2.30;99.90;;;;;;5098269;28;19927;-70
2022/01/27 08:10:44;;;;;;;;;;;-2.30;99.90;;;;;;5086872;28;19927;-70
2022/01/27 08:13:11;;;;;;;;;;;-2.30;99.90;;;;;;5085316;28;19920;-70
2022/01/27 08:15:38;;;;;;;;;;;-2.30;99.90;;;;;;5086543;28;19925;-70
2022/01/27 08:18:05;;;;;;;;;;;-2.30;99.90;;;;;;5095932;28;19919;-70
2022/01/27 08:20:33;;;;;;;;;;;-2.20;99.90;;;;;;5094885;28;19987;-70
2022/01/27 08:23:00;;;;;;;;;;;-2.30;99.90;;;;;;5098677;28;19980;-70
2022/01/27 08:25:26;;;;;;;;;;;-2.40;99.90;;;;;;5085815;28;19920;-70
2022/01/27 08:27:55;;;;;;;;;;;-2.40;99.90;;;;;;5090510;28;19920;-72
2022/01/27 08:30:23;;;;;;;;;;;-2.40;99.90;;;;;;5101059;28;19981;-70
2022/01/27 08:32:57;;;;;;;;;;;-2.40;99.90;;;;;;5106618;28;19920;-70
2022/01/27 08:35:24;;;;;;;;;;;-2.40;99.90;;;;;;5101089;28;19920;-70
2022/01/27 08:37:53;;;;;;;;;;;-2.40;99.90;;;;;;5095516;28;19927;-71
2022/01/27 08:40:19;;;;;;;;;;;-2.30;99.90;;;;;;5106315;28;20122;-70
2022/01/27 08:42:46;;;;;;;;;;;-2.30;99.90;;;;;;5106255;28;19920;-70
2022/01/27 08:45:15;;;;;;;;;;;-2.30;99.90;;;;;;5105701;28;19920;-70
2022/01/27 08:47:42;;;;;;;;;;;-2.20;99.90;;;;;;5093978;28;19920;-70
2022/01/27 08:50:10;;;;;;;;;;;-2.20;99.90;;;;;;5105281;28;19927;-70
2022/01/27 08:52:37;;;;;;;;;;;-2.20;99.90;;;;;;5094026;28;19920;-69
2022/01/27 08:55:06;;;;;;;;;;;-2.20;99.90;;;;;;5094535;28;19927;-71
2022/01/27 08:57:33;;;;;;;;;;;-2.20;99.90;;;;;;5086589;28;19921;-70
2022/01/27 09:00:01;;;;;;;;;;;-2.20;99.90;;;;;;5085930;28;19921;-70
2022/01/27 09:02:28;;;;;;;;;;;-2.20;99.90;;;;;;5087670;28;19920;-70
2022/01/27 09:04:54;;;;;;;;;;;-2.30;99.90;;;;;;5103880;28;19942;-70
2022/01/27 09:07:21;;;;;;;;;;;-2.30;99.90;;;;;;5087026;28;20219;-70
2022/01/27 09:09:47;;;;;;;;;;;-2.30;99.90;;;;;;5089462;28;19926;-70
2022/01/27 09:12:16;;;;;;;;;;;-2.30;99.90;;;;;;5105789;28;19920;-71
2022/01/27 09:14:43;;;;;;;;;;;-2.30;99.90;;;;;;5105643;28;19927;-70
2022/01/27 09:17:10;;;;;;;;;;;-2.30;99.90;;;;;;5105034;28;19991;-70
2022/01/27 09:19:39;;;;;;;;;;;-2.30;99.90;;;;;;5091245;28;19979;-70
2022/01/27 09:22:11;;;;;;;;;;;-2.30;99.90;;;;;;5085475;28;20235;-70
2022/01/27 09:24:40;;;;;;;;;;;-2.30;99.90;;;;;;5085038;28;19920;-70
2022/01/27 09:27:07;;;;;;;;;;;-2.30;99.90;;;;;;5103576;28;20246;-70
2022/01/27 09:29:35;;;;;;;;;;;-2.30;99.90;;;;;;5100159;28;20234;-71
2022/01/27 09:32:03;;;;;;;;;;;-2.30;99.90;;;;;;5069217;22;19921;-73
2022/01/27 09:34:30;;;;;;;;;;;-2.30;99.90;;;;;;5043960;28;20207;-73
2022/01/27 09:36:57;;;;;;;;;;;-2.30;99.90;;;;;;5062669;28;19947;-73
2022/01/27 09:39:24;;;;;;;;;;;-2.30;99.90;;;;;;5047029;28;20205;-73
2022/01/27 09:41:54;;;;;;;;;;;-2.30;99.90;;;;;;5053934;28;20196;-73
2022/01/27 09:44:23;;;;;;;;;;;-2.30;99.90;;;;;;5025114;28;19968;-73
2022/01/27 09:46:53;;;;;;;;;;;-2.30;99.90;;;;;;5025239;28;19996;-73
2022/01/27 09:49:30;;;;;;;;;;;-2.30;99.90;;;;;;5029764;28;19921;-73
2022/01/27 09:51:56;;;;;;;;;;;-2.20;99.90;;;;;;5042775;28;19921;-73
2022/01/27 09:54:23;;;;;;;;;;;-2.20;99.90;;;;;;5043308;28;19931;-73
2022/01/27 09:56:49;;;;;;;;;;;-2.10;99.90;;;;;;5044301;28;19925;-72
2022/01/27 09:59:17;;;;;;;;;;;-2.10;99.90;;;;;;5044378;28;19936;-72
2022/01/27 10:01:54;;;;;;;;;;;-2.10;99.90;;;;;;5044715;28;19928;-71
2022/01/27 10:04:21;;;;;;;;;;;-2.10;99.90;;;;;;5030150;28;20143;-72
2022/01/27 10:06:48;;;;;;;;;;;-2.10;99.90;;;;;;5025090;28;19921;-72
2022/01/27 10:09:17;;;;;;;;;;;-2.10;99.90;;;;;;5024387;28;19960;-72
2022/01/27 10:11:44;;;;;;;;;;;-2.10;99.90;;;;;;5024693;28;19921;-72
2022/01/27 10:14:17;;;;;;;;;;;-2.10;99.90;;;;;;5025908;28;19921;-71
2022/01/27 10:16:44;;;;;;;;;;;-2.10;99.90;;;;;;5025093;28;19921;-72
2022/01/27 10:19:13;;;;;;;;;;;-2.10;99.90;;;;;;5025130;28;20231;-72
2022/01/27 10:21:40;;;;;;;;;;;-2.00;99.90;;;;;;5024703;28;19921;-72
2022/01/27 10:24:18;;;;;;;;;;;-1.90;99.90;;;;;;5032865;28;19921;-72
2022/01/27 10:26:52;;;;;;;;;;;-1.80;99.90;;;;;;5044712;28;19921;-72
2022/01/27 10:29:30;;;;;;;;;;;-1.80;99.90;;;;;;5044615;28;19921;-72
2022/01/27 10:32:01;;;;;;;;;;;-1.80;99.90;;;;;;5044577;28;20140;-72
2022/01/27 10:34:29;;;;;;;;;;;-1.80;99.90;;;;;;5032085;28;19929;-72
2022/01/27 10:36:56;;;;;;;;;;;-1.80;99.90;;;;;;5024463;28;20235;-72
2022/01/27 10:39:23;;;;;;;;;;;-1.70;99.90;;;;;;5024836;28;19921;-72
2022/01/27 10:41:55;;;;;;;;;;;-1.70;99.90;;;;;;5024850;28;19921;-72
2022/01/27 10:44:23;;;;;;;;;;;-1.60;99.90;;;;;;5024629;28;20094;-72
2022/01/27 10:47:01;;;;;;;;;;;-1.50;99.90;;;;;;5024642;28;19928;-71
2022/01/27 10:49:30;;;;;;;;;;;-1.40;99.90;;;;;;5025987;28;19964;-72
2022/01/27 10:51:57;;;;;;;;;;;-1.40;99.90;;;;;;5027678;28;19922;-72
2022/01/27 10:54:34;;;;;;;;;;;-1.50;99.90;;;;;;5032361;28;19984;-72
2022/01/27 10:57:02;;;;;;;;;;;-1.40;99.90;;;;;;5027512;28;20144;-72
2022/01/27 10:59:32;;;;;;;;;;;-1.50;99.90;;;;;;5029185;28;19920;-72
2022/01/27 11:01:59;;;;;;;;;;;-1.40;99.90;;;;;;5044147;28;19935;-72
2022/01/27 11:04:33;;;;;;;;;;;-1.50;99.90;;;;;;5042915;28;19967;-72
2022/01/27 11:07:01;;;;;;;;;;;-1.40;99.90;;;;;;5044043;28;20155;-72
2022/01/27 11:09:29;;;;;;;;;;;-1.40;99.90;;;;;;5037160;28;19956;-72
2022/01/27 11:11:57;;;;;;;;;;;-1.30;99.90;;;;;;5024307;28;19921;-72
2022/01/27 11:14:25;;;;;;;;;;;-1.30;99.90;;;;;;5023784;28;19960;-71
2022/01/27 11:16:56;;;;;;;;;;;-1.30;99.90;;;;;;5027876;28;19921;-72
2022/01/27 11:19:40;;;;;;;;;;;-1.30;99.90;;;;;;5044321;28;19960;-72
2022/01/27 11:22:24;;;;;;;;;;;-1.20;99.90;;;;;;5048728;28;19921;-72
2022/01/27 11:25:08;;;;;;;;;;;-1.20;99.90;;;;;;5051957;28;19931;-72
2022/01/27 11:27:36;;;;;;;;;;;-1.20;99.90;;;;;;5050560;28;19920;-72
2022/01/27 11:30:05;;;;;;;;;;;-1.20;99.90;;;;;;5049431;28;19921;-72
2022/01/27 11:32:34;;;;;;;;;;;-1.20;99.90;;;;;;5052572;28;20111;-72
2022/01/27 11:35:00;;;;;;;;;;;-1.20;99.90;;;;;;5049976;28;19960;-73
2022/01/27 11:37:32;;;;;;;;;;;-1.10;99.90;;;;;;5053551;28;19927;-72
2022/01/27 11:40:03;;;;;;;;;;;-1.10;99.90;;;;;;5053699;28;19988;-72
2022/01/27 11:42:43;;;;;;;;;;;-1.10;99.90;;;;;;5048958;28;19988;-72
2022/01/27 11:45:28;;;;;;;;;;;-1.10;99.90;;;;;;5047416;28;19921;-72
2022/01/27 11:47:57;;;;;;;;;;;-1.20;99.90;;;;;;5049646;28;20112;-72
2022/01/27 11:50:32;;;;;;;;;;;-1.10;99.90;;;;;;5042870;28;19921;-72
2022/01/27 11:53:01;;;;;;;;;;;-1.10;99.90;;;;;;5043484;28;19921;-72
2022/01/27 11:55:45;;;;;;;;;;;-1.00;99.90;;;;;;5032929;28;19980;-72
2022/01/27 11:58:16;;;;;;;;;;;-1.00;99.90;;;;;;5023707;28;20148;-72
2022/01/27 12:00:58;;;;;;;;;;;-0.90;99.90;;;;;;5038346;28;19921;-72
2022/01/27 12:03:24;;;;;;;;;;;-0.90;99.90;;;;;;5042520;28;19921;-72
2022/01/27 12:06:06;;;;;;;;;;;-0.80;99.90;;;;;;5042528;28;19921;-72
2022/01/27 12:08:34;;;;;;;;;;;-0.80;99.90;;;;;;5028880;28;19928;-72
2022/01/27 12:11:05;;;;;;;;;;;-0.70;99.90;;;;;;5023564;28;19956;-71
2022/01/27 12:13:58;;;;;;;;;;;-0.70;99.90;;;;;;5021827;28;20213;-70
2022/01/27 12:16:39;;;;;;;;;;;-0.70;99.90;;;;;;5026912;28;19988;-72
2022/01/27 12:19:08;;;;;;;;;;;-0.70;99.90;;;;;;5040502;28;19921;-72
2022/01/27 12:21:35;;;;;;;;;;;-0.60;99.90;;;;;;5042852;28;20161;-72
2022/01/27 12:24:19;;;;;;;;;;;-0.70;99.90;;;;;;5041603;28;19921;-72
2022/01/27 12:26:46;;;;;;;;;;;-0.70;99.90;;;;;;5035762;28;19928;-72
2022/01/27 12:29:13;;;;;;;;;;;-0.70;99.90;;;;;;5033435;28;19929;-72
2022/01/27 12:31:39;;;;;;;;;;;-0.70;99.90;;;;;;5027670;28;19952;-72
2022/01/27 12:34:06;;;;;;;;;;;-0.80;99.90;;;;;;5028240;28;19921;-71
2022/01/27 12:36:33;;;;;;;;;;;-0.80;99.90;;;;;;5023513;28;19921;-73
2022/01/27 12:38:59;;;;;;;;;;;-0.80;99.90;;;;;;5022432;28;20116;-73
2022/01/27 12:41:27;;;;;;;;;;;-0.70;99.90;;;;;;5022399;28;19922;-73
2022/01/27 12:43:54;;;;;;;;;;;-0.70;99.90;;;;;;5021162;28;20123;-73
2022/01/27 12:46:21;;;;;;;;;;;-0.60;99.90;;;;;;5028783;28;20106;-73
2022/01/27 12:48:49;;;;;;;;;;;-0.70;99.90;;;;;;5044690;28;19921;-73
2022/01/27 12:51:17;;;;;;;;;;;-0.70;99.90;;;;;;5044803;28;19984;-73
2022/01/27 12:53:44;;;;;;;;;;;-0.70;99.90;;;;;;5046067;28;19921;-71
2022/01/27 12:56:11;;;;;;;;;;;-0.70;99.90;;;;;;5046125;28;19921;-73
2022/01/27 12:58:39;;;;;;;;;;;-0.70;99.90;;;;;;5062154;28;20216;-73
2022/01/27 13:01:06;;;;;;;;;;;-0.60;99.90;;;;;;5066353;28;19920;-73
2022/01/27 13:03:32;;;;;;;;;;;-0.20;99.90;;;;;;5047383;28;19921;-73
2022/01/27 13:06:03;;;;;;;;;;;-0.60;99.90;;;;;;5046024;28;19925;-73
2022/01/27 13:08:34;;;;;;;;;;;-0.60;99.90;;;;;;5045768;28;19920;-71
2022/01/27 13:11:08;;;;;;;;;;;-0.60;99.90;;;;;;5046276;28;19921;-72
2022/01/27 13:13:37;;;;;;;;;;;-0.60;99.90;;;;;;5030491;28;19925;-72
2022/01/27 13:16:07;;;;;;;;;;;-0.50;99.90;;;;;;5025876;28;19921;-72
2022/01/27 13:18:42;;;;;;;;;;;-0.50;99.90;;;;;;5035609;28;19956;-72
2022/01/27 13:21:17;;;;;;;;;;;-0.50;99.90;;;;;;5045517;28;20235;-72
2022/01/27 13:23:47;;;;;;;;;;;-0.40;99.90;;;;;;5043019;28;20168;-72
2022/01/27 13:26:16;;;;;;;;;;;-0.40;99.90;;;;;;5045505;28;19992;-72
2022/01/27 13:28:45;;;;;;;;;;;-0.40;99.90;;;;;;5035483;28;19921;-71
2022/01/27 13:31:14;;;;;;;;;;;-0.30;99.90;;;;;;5045339;28;19921;-70
2022/01/27 13:33:42;;;;;;;;;;;-0.30;99.90;;;;;;5045032;28;20184;-71
2022/01/27 13:36:16;;;;;;;;;;;-0.30;99.90;;;;;;5041239;28;19951;-70
2022/01/27 13:39:01;;;;;;;;;;;-0.30;99.90;;;;;;5035799;28;19922;-70
2022/01/27 13:41:29;;;;;;;;;;;-0.20;99.90;;;;;;5027894;28;19922;-70
2022/01/27 13:44:03;;;;;;;;;;;-0.20;99.90;;;;;;5024675;28;20121;-76
2022/01/27 13:46:36;;;;;;;;;;;-0.20;99.90;;;;;;5025787;28;19921;-71
2022/01/27 13:49:06;;;;;;;;;;;-0.10;99.90;;;;;;5025706;28;20147;-71
2022/01/27 13:51:33;;;;;;;;;;;-0.10;99.90;;;;;;5025385;28;19921;-71
2022/01/27 13:54:00;;;;;;;;;;;-0.10;99.90;;;;;;5033415;28;20124;-70
2022/01/27 13:56:37;;;;;;;;;;;-0.10;99.90;;;;;;5044954;28;19921;-71
2022/01/27 13:59:10;;;;;;;;;;;-0.10;99.90;;;;;;5044832;28;19929;-71
2022/01/27 14:01:38;;;;;;;;;;;0.00;99.90;;;;;;5045020;28;19990;-71
2022/01/27 14:04:04;;;;;;;;;;;0.10;99.90;;;;;;5035259;28;19925;-71
2022/01/27 14:06:31;;;;;;;;;;;0.10;99.90;;;;;;5024959;28;19921;-72
2022/01/27 14:08:58;;;;;;;;;;;0.10;99.90;;;;;;5024841;28;20090;-72
2022/01/27 14:11:35;;;;;;;;;;;0.20;99.90;;;;;;5024735;28;19960;-71
2022/01/27 14:14:03;;;;;;;;;;;0.20;99.90;;;;;;5041095;28;19988;-71
2022/01/27 14:16:32;;;;;;;;;;;0.30;99.90;;;;;;5035331;28;20204;-70
2022/01/27 14:19:10;;;;;;;;;;;0.30;99.90;;;;;;5030859;28;19944;-72
2022/01/27 14:21:41;;;;;;;;;;;0.30;99.90;;;;;;5024611;28;19925;-71
2022/01/27 14:24:09;;;;;;;;;;;0.40;99.90;;;;;;5035243;28;19925;-71
2022/01/27 14:26:41;;;;;;;;;;;0.40;99.90;;;;;;5024853;28;20298;-71
2022/01/27 14:29:10;;;;;;;;;;;0.40;99.90;;;;;;5024901;28;19922;-72
2022/01/27 14:31:37;;;;;;;;;;;0.40;99.90;;;;;;5036356;28;19951;-70
2022/01/27 14:34:04;;;;;;;;;;;0.50;99.90;;;;;;5063599;28;19927;-72
2022/01/27 14:36:32;;;;;;;;;;;0.50;99.90;;;;;;5064717;28;19928;-71
2022/01/27 14:38:59;;;;;;;;;;;0.60;99.90;;;;;;5064547;28;19928;-71
2022/01/27 14:41:26;;;;;;;;;;;0.60;99.90;;;;;;5063524;28;20004;-73
2022/01/27 14:43:53;;;;;;;;;;;0.60;99.90;;;;;;5056973;28;19927;-72
2022/01/27 14:46:27;;;;;;;;;;;0.60;99.90;;;;;;5044646;28;19933;-73
2022/01/27 14:48:57;;;;;;;;;;;0.60;99.90;;;;;;5044111;28;19929;-72